createdAt,value
2022-08-31T00:00:44.581Z,17.19
2022-08-31T00:01:44.646Z,17.15
2022-08-31T00:02:44.560Z,17.04
2022-08-31T00:03:44.569Z,17.16
2022-08-31T00:04:44.598Z,17.11
2022-08-31T00:05:44.555Z,17.14
2022-08-31T00:06:44.572Z,17.02
2022-08-31T00:07:44.539Z,17.09
2022-08-31T00:08:44.521Z,17.08
2022-08-31T00:09:44.526Z,17.05
2022-08-31T00:10:45.098Z,17.04
2022-08-31T00:11:44.651Z,17.04
2022-08-31T00:12:44.506Z,17.08
2022-08-31T00:13:44.486Z,17.06
2022-08-31T00:14:44.480Z,17.11
2022-08-31T00:15:44.472Z,17.05
2022-08-31T00:16:44.586Z,16.84
2022-08-31T00:17:44.460Z,16.89
2022-08-31T00:18:44.450Z,16.75
2022-08-31T00:19:44.446Z,16.75
2022-08-31T00:20:44.441Z,16.69
2022-08-31T00:21:44.887Z,16.84
2022-08-31T00:22:44.414Z,16.86
2022-08-31T00:23:44.414Z,16.83
2022-08-31T00:24:44.403Z,16.90
2022-08-31T00:25:44.390Z,16.97
2022-08-31T00:26:44.419Z,17.09
2022-08-31T00:27:44.391Z,17.22
2022-08-31T00:28:44.371Z,17.22
2022-08-31T00:29:44.369Z,17.26
2022-08-31T00:30:44.354Z,17.39
2022-08-31T00:31:44.407Z,17.44
2022-08-31T00:32:44.335Z,17.54
2022-08-31T00:33:44.342Z,17.46
2022-08-31T00:34:44.321Z,17.42
2022-08-31T00:35:44.314Z,17.48
2022-08-31T00:36:44.334Z,17.44
2022-08-31T00:37:44.302Z,17.48
2022-08-31T00:38:44.289Z,17.48
2022-08-31T00:39:44.283Z,17.45
2022-08-31T00:40:45.120Z,17.33
2022-08-31T00:41:44.298Z,17.34
2022-08-31T00:42:44.265Z,17.34
2022-08-31T00:43:44.248Z,17.42
2022-08-31T00:44:44.244Z,17.41
2022-08-31T00:45:44.351Z,17.46
2022-08-31T00:46:44.257Z,17.46
2022-08-31T00:47:44.216Z,17.41
2022-08-31T00:48:44.247Z,17.36
2022-08-31T00:49:44.202Z,17.38
2022-08-31T00:50:44.197Z,17.29
2022-08-31T00:51:44.225Z,17.27
2022-08-31T00:52:44.192Z,17.31
2022-08-31T00:53:44.192Z,17.36
2022-08-31T00:54:44.170Z,17.38
2022-08-31T00:55:44.167Z,17.36
2022-08-31T00:56:44.200Z,17.31
2022-08-31T00:57:44.165Z,17.29
2022-08-31T00:58:44.140Z,17.30
2022-08-31T00:59:44.129Z,17.33
2022-08-31T01:00:44.153Z,17.27
2022-08-31T01:01:44.191Z,17.29
2022-08-31T01:02:44.135Z,17.33
2022-08-31T01:03:44.097Z,17.41
2022-08-31T01:04:44.093Z,17.34
2022-08-31T01:05:44.079Z,17.22
2022-08-31T01:06:44.075Z,17.31
2022-08-31T01:07:44.102Z,17.22
2022-08-31T01:08:44.075Z,17.22
2022-08-31T01:09:52.684Z,17.30
2022-08-31T01:10:45.038Z,17.27
2022-08-31T01:11:44.031Z,17.27
2022-08-31T01:12:44.070Z,17.31
2022-08-31T01:13:44.085Z,17.27
2022-08-31T01:14:44.009Z,17.26
2022-08-31T01:15:44.013Z,17.22
2022-08-31T01:16:44.043Z,17.20
2022-08-31T01:17:44.017Z,17.22
2022-08-31T01:18:43.976Z,17.19
2022-08-31T01:19:43.981Z,17.19
2022-08-31T01:20:48.805Z,17.14
2022-08-31T01:21:44.956Z,17.20
2022-08-31T01:22:43.994Z,17.20
2022-08-31T01:23:43.957Z,17.20
2022-08-31T01:24:43.956Z,17.20
2022-08-31T01:25:43.922Z,17.08
2022-08-31T01:26:43.941Z,16.97
2022-08-31T01:27:44.936Z,17.11
2022-08-31T01:28:43.897Z,17.01
2022-08-31T01:29:43.900Z,16.94
2022-08-31T01:30:43.887Z,17.06
2022-08-31T01:31:43.988Z,17.01
2022-08-31T01:32:43.895Z,17.02
2022-08-31T01:33:43.847Z,16.99
2022-08-31T01:34:44.853Z,16.97
2022-08-31T01:35:43.865Z,17.05
2022-08-31T01:36:43.849Z,16.97
2022-08-31T01:37:43.865Z,16.96
2022-08-31T01:38:43.824Z,17.04
2022-08-31T01:39:43.817Z,16.97
2022-08-31T01:40:43.879Z,16.97
2022-08-31T01:41:43.797Z,17.04
2022-08-31T01:42:43.823Z,16.86
2022-08-31T01:43:43.776Z,17.02
2022-08-31T01:44:43.834Z,17.02
2022-08-31T01:45:43.770Z,16.94
2022-08-31T01:46:43.829Z,16.96
2022-08-31T01:47:43.777Z,16.93
2022-08-31T01:48:43.740Z,16.97
2022-08-31T01:49:43.745Z,16.87
2022-08-31T01:50:43.731Z,16.94
2022-08-31T01:51:43.720Z,16.87
2022-08-31T01:52:43.735Z,16.93
2022-08-31T01:53:45.820Z,16.81
2022-08-31T01:54:43.694Z,16.84
2022-08-31T01:55:43.695Z,16.90
2022-08-31T01:56:43.685Z,16.69
2022-08-31T01:57:43.704Z,16.74
2022-08-31T01:58:45.135Z,16.81
2022-08-31T01:59:43.675Z,16.90
2022-08-31T02:00:43.686Z,16.78
2022-08-31T02:01:43.846Z,16.81
2022-08-31T02:02:43.713Z,16.75
2022-08-31T02:03:43.672Z,16.84
2022-08-31T02:04:43.621Z,16.96
2022-08-31T02:05:43.607Z,16.83
2022-08-31T02:06:43.603Z,16.72
2022-08-31T02:07:43.613Z,16.76
2022-08-31T02:08:43.583Z,16.75
2022-08-31T02:09:43.575Z,16.72
2022-08-31T02:10:43.569Z,16.76
2022-08-31T02:11:43.572Z,16.66
2022-08-31T02:12:43.576Z,16.69
2022-08-31T02:13:43.551Z,16.68
2022-08-31T02:14:43.532Z,16.64
2022-08-31T02:15:43.533Z,16.74
2022-08-31T02:16:43.578Z,16.66
2022-08-31T02:17:43.542Z,16.65
2022-08-31T02:18:43.510Z,16.61
2022-08-31T02:19:43.502Z,16.74
2022-08-31T02:20:43.501Z,16.64
2022-08-31T02:21:43.487Z,16.54
2022-08-31T02:22:43.506Z,16.53
2022-08-31T02:23:43.482Z,16.51
2022-08-31T02:24:43.471Z,16.50
2022-08-31T02:25:43.450Z,16.46
2022-08-31T02:26:43.448Z,16.50
2022-08-31T02:27:43.469Z,16.38
2022-08-31T02:28:43.431Z,16.31
2022-08-31T02:29:43.423Z,16.32
2022-08-31T02:30:43.426Z,16.41
2022-08-31T02:31:43.484Z,16.33
2022-08-31T02:32:43.432Z,16.23
2022-08-31T02:33:43.402Z,16.33
2022-08-31T02:34:43.409Z,16.29
2022-08-31T02:35:43.378Z,16.26
2022-08-31T02:36:43.370Z,16.26
2022-08-31T02:37:43.394Z,16.23
2022-08-31T02:38:43.356Z,16.17
2022-08-31T02:39:43.396Z,16.26
2022-08-31T02:40:43.430Z,16.21
2022-08-31T02:41:43.340Z,16.20
2022-08-31T02:42:52.828Z,16.12
2022-08-31T02:43:44.312Z,15.98
2022-08-31T02:44:43.307Z,16.10
2022-08-31T02:45:43.296Z,16.16
2022-08-31T02:46:43.397Z,16.09
2022-08-31T02:47:43.281Z,16.13
2022-08-31T02:48:43.299Z,16.04
2022-08-31T02:49:43.260Z,16.09
2022-08-31T02:50:43.261Z,16.04
2022-08-31T02:51:43.244Z,15.97
2022-08-31T02:52:43.228Z,15.98
2022-08-31T02:53:44.258Z,16.04
2022-08-31T02:54:43.225Z,16.16
2022-08-31T02:55:43.217Z,16.08
2022-08-31T02:56:43.207Z,16.08
2022-08-31T02:57:43.202Z,16.04
2022-08-31T02:58:43.222Z,15.98
2022-08-31T02:59:43.200Z,16.02
2022-08-31T03:00:43.243Z,16.08
2022-08-31T03:01:43.256Z,15.86
2022-08-31T03:02:43.193Z,15.84
2022-08-31T03:03:46.234Z,15.94
2022-08-31T03:04:44.146Z,15.90
2022-08-31T03:05:43.132Z,15.90
2022-08-31T03:06:43.131Z,15.98
2022-08-31T03:07:43.120Z,15.97
2022-08-31T03:08:43.136Z,15.92
2022-08-31T03:09:43.102Z,15.94
2022-08-31T03:10:43.097Z,15.79
2022-08-31T03:11:43.090Z,15.84
2022-08-31T03:12:43.078Z,15.86
2022-08-31T03:13:43.101Z,15.88
2022-08-31T03:14:43.067Z,15.77
2022-08-31T03:15:43.113Z,15.76
2022-08-31T03:16:43.053Z,15.83
2022-08-31T03:17:43.042Z,15.77
2022-08-31T03:18:43.060Z,15.83
2022-08-31T03:19:43.034Z,15.80
2022-08-31T03:20:43.017Z,15.83
2022-08-31T03:21:43.014Z,15.73
2022-08-31T03:22:45.692Z,15.79
2022-08-31T03:23:43.019Z,15.70
2022-08-31T03:24:42.990Z,15.82
2022-08-31T03:25:42.988Z,15.84
2022-08-31T03:26:42.977Z,15.76
2022-08-31T03:27:42.970Z,15.88
2022-08-31T03:28:42.999Z,15.82
2022-08-31T03:29:42.961Z,15.84
2022-08-31T03:30:42.988Z,15.76
2022-08-31T03:31:42.931Z,15.73
2022-08-31T03:32:42.933Z,15.77
2022-08-31T03:33:42.946Z,15.76
2022-08-31T03:34:42.916Z,15.76
2022-08-31T03:35:42.901Z,15.77
2022-08-31T03:36:42.899Z,15.72
2022-08-31T03:37:42.898Z,15.77
2022-08-31T03:38:42.914Z,15.73
2022-08-31T03:39:42.878Z,15.76
2022-08-31T03:40:42.917Z,15.72
2022-08-31T03:41:42.858Z,15.76
2022-08-31T03:42:42.859Z,15.76
2022-08-31T03:43:42.874Z,15.76
2022-08-31T03:44:42.842Z,15.68
2022-08-31T03:45:42.837Z,15.72
2022-08-31T03:46:42.862Z,15.77
2022-08-31T03:47:44.910Z,15.77
2022-08-31T03:48:42.837Z,15.75
2022-08-31T03:49:42.806Z,15.72
2022-08-31T03:50:42.807Z,15.76
2022-08-31T03:51:42.803Z,15.80
2022-08-31T03:52:42.784Z,15.80
2022-08-31T03:53:42.803Z,15.75
2022-08-31T03:54:42.775Z,15.70
2022-08-31T03:55:42.753Z,15.68
2022-08-31T03:56:42.771Z,15.73
2022-08-31T03:57:42.746Z,15.75
2022-08-31T03:58:42.760Z,15.92
2022-08-31T03:59:42.732Z,15.73
2022-08-31T04:00:42.726Z,15.76
2022-08-31T04:01:42.778Z,15.73
2022-08-31T04:02:42.736Z,15.70
2022-08-31T04:03:42.716Z,15.68
2022-08-31T04:04:42.714Z,15.65
2022-08-31T04:05:42.680Z,15.67
2022-08-31T04:06:42.670Z,15.65
2022-08-31T04:07:43.222Z,15.73
2022-08-31T04:08:42.683Z,15.72
2022-08-31T04:09:42.642Z,15.76
2022-08-31T04:10:42.637Z,15.72
2022-08-31T04:11:44.588Z,15.68
2022-08-31T04:12:42.621Z,15.64
2022-08-31T04:13:42.636Z,15.58
2022-08-31T04:14:42.608Z,15.72
2022-08-31T04:15:42.636Z,15.64
2022-08-31T04:16:42.592Z,15.73
2022-08-31T04:17:42.584Z,15.65
2022-08-31T04:18:42.600Z,15.75
2022-08-31T04:19:42.559Z,15.67
2022-08-31T04:20:43.561Z,15.70
2022-08-31T04:21:44.204Z,15.62
2022-08-31T04:22:42.541Z,15.75
2022-08-31T04:23:42.565Z,15.73
2022-08-31T04:24:42.556Z,15.67
2022-08-31T04:25:42.532Z,15.72
2022-08-31T04:26:42.513Z,15.62
2022-08-31T04:27:42.512Z,15.76
2022-08-31T04:28:42.531Z,15.58
2022-08-31T04:29:42.498Z,15.62
2022-08-31T04:30:42.538Z,15.72
2022-08-31T04:31:42.491Z,15.55
2022-08-31T04:32:42.466Z,15.61
2022-08-31T04:33:42.584Z,15.51
2022-08-31T04:34:42.462Z,15.46
2022-08-31T04:35:42.446Z,15.55
2022-08-31T04:36:42.436Z,15.46
2022-08-31T04:37:46.493Z,15.46
2022-08-31T04:38:43.451Z,15.44
2022-08-31T04:39:50.770Z,15.44
2022-08-31T04:40:43.475Z,15.44
2022-08-31T04:41:42.399Z,15.52
2022-08-31T04:42:42.393Z,15.39
2022-08-31T04:43:42.387Z,15.44
2022-08-31T04:44:42.410Z,15.46
2022-08-31T04:45:42.489Z,15.47
2022-08-31T04:46:42.366Z,15.47
2022-08-31T04:47:42.353Z,15.43
2022-08-31T04:48:42.347Z,15.36
2022-08-31T04:49:42.360Z,15.49
2022-08-31T04:50:43.093Z,15.54
2022-08-31T04:51:43.321Z,15.29
2022-08-31T04:52:42.315Z,15.49
2022-08-31T04:53:42.331Z,15.46
2022-08-31T04:54:42.311Z,15.51
2022-08-31T04:55:42.300Z,15.51
2022-08-31T04:56:42.288Z,15.54
2022-08-31T04:57:42.279Z,15.46
2022-08-31T04:58:42.299Z,15.55
2022-08-31T04:59:42.266Z,15.47
2022-08-31T05:00:42.266Z,15.46
2022-08-31T05:01:43.114Z,15.47
2022-08-31T05:02:42.285Z,15.37
2022-08-31T05:03:42.256Z,15.49
2022-08-31T05:04:42.223Z,15.49
2022-08-31T05:05:42.221Z,15.52
2022-08-31T05:06:42.213Z,15.43
2022-08-31T05:07:42.204Z,15.42
2022-08-31T05:08:42.226Z,15.46
2022-08-31T05:09:42.232Z,15.42
2022-08-31T05:10:42.211Z,15.42
2022-08-31T05:11:42.174Z,15.42
2022-08-31T05:12:42.166Z,15.43
2022-08-31T05:13:42.175Z,15.37
2022-08-31T05:14:42.151Z,15.36
2022-08-31T05:15:42.182Z,15.40
2022-08-31T05:16:42.130Z,15.40
2022-08-31T05:17:42.130Z,15.39
2022-08-31T05:18:42.151Z,15.52
2022-08-31T05:19:42.111Z,15.42
2022-08-31T05:20:42.161Z,15.39
2022-08-31T05:21:42.095Z,15.44
2022-08-31T05:22:42.084Z,15.43
2022-08-31T05:23:42.115Z,15.49
2022-08-31T05:24:42.075Z,15.54
2022-08-31T05:25:42.069Z,15.52
2022-08-31T05:26:42.342Z,15.51
2022-08-31T05:27:42.075Z,15.49
2022-08-31T05:28:42.079Z,15.51
2022-08-31T05:29:42.038Z,15.55
2022-08-31T05:30:42.078Z,15.64
2022-08-31T05:31:42.022Z,15.58
2022-08-31T05:32:42.008Z,15.72
2022-08-31T05:33:42.016Z,15.73
2022-08-31T05:34:42.020Z,15.67
2022-08-31T05:35:41.995Z,15.54
2022-08-31T05:36:42.075Z,15.65
2022-08-31T05:37:41.974Z,15.70
2022-08-31T05:38:41.964Z,15.68
2022-08-31T05:39:41.991Z,15.70
2022-08-31T05:40:42.023Z,15.68
2022-08-31T05:41:41.947Z,15.77
2022-08-31T05:42:41.933Z,15.80
2022-08-31T05:43:41.931Z,15.86
2022-08-31T05:44:41.944Z,15.98
2022-08-31T05:45:41.910Z,15.90
2022-08-31T05:46:42.002Z,15.84
2022-08-31T05:47:41.898Z,15.73
2022-08-31T05:48:41.894Z,15.76
2022-08-31T05:49:42.906Z,15.80
2022-08-31T05:50:41.873Z,15.73
2022-08-31T05:51:41.871Z,15.77
2022-08-31T05:52:41.852Z,15.79
2022-08-31T05:53:41.843Z,15.77
2022-08-31T05:54:41.861Z,15.82
2022-08-31T05:55:41.838Z,15.80
2022-08-31T05:56:41.825Z,15.77
2022-08-31T05:57:41.819Z,15.79
2022-08-31T05:58:41.818Z,15.75
2022-08-31T05:59:41.828Z,15.79
2022-08-31T06:00:41.795Z,15.88
2022-08-31T06:01:41.816Z,15.83
2022-08-31T06:02:41.781Z,15.77
2022-08-31T06:03:41.773Z,15.76
2022-08-31T06:04:41.834Z,15.77
2022-08-31T06:05:41.818Z,15.75
2022-08-31T06:06:41.746Z,15.83
2022-08-31T06:07:41.735Z,15.84
2022-08-31T06:08:41.732Z,15.80
2022-08-31T06:09:41.866Z,15.75
2022-08-31T06:10:41.718Z,15.79
2022-08-31T06:11:41.707Z,15.80
2022-08-31T06:12:41.708Z,15.84
2022-08-31T06:13:41.685Z,15.92
2022-08-31T06:14:44.759Z,15.94
2022-08-31T06:15:42.336Z,15.97
2022-08-31T06:16:41.757Z,16.02
2022-08-31T06:17:41.665Z,16.00
2022-08-31T06:18:41.651Z,16.10
2022-08-31T06:19:41.672Z,15.97
2022-08-31T06:20:41.642Z,16.02
2022-08-31T06:21:49.806Z,16.04
2022-08-31T06:22:42.635Z,16.01
2022-08-31T06:23:41.619Z,16.08
2022-08-31T06:24:41.627Z,16.17
2022-08-31T06:25:42.601Z,16.12
2022-08-31T06:26:41.601Z,16.17
2022-08-31T06:27:41.595Z,16.08
2022-08-31T06:28:41.577Z,16.12
2022-08-31T06:29:41.594Z,16.04
2022-08-31T06:30:54.923Z,16.17
2022-08-31T06:31:43.579Z,16.23
2022-08-31T06:32:41.548Z,16.32
2022-08-31T06:33:41.549Z,16.24
2022-08-31T06:34:41.557Z,16.24
2022-08-31T06:35:41.536Z,16.29
2022-08-31T06:36:41.520Z,16.33
2022-08-31T06:37:41.513Z,16.35
2022-08-31T06:38:41.509Z,16.31
2022-08-31T06:39:41.517Z,16.46
2022-08-31T06:40:41.520Z,16.41
2022-08-31T06:41:41.481Z,16.29
2022-08-31T06:42:41.478Z,16.26
2022-08-31T06:43:41.463Z,16.20
2022-08-31T06:44:41.479Z,16.21
2022-08-31T06:45:41.458Z,16.26
2022-08-31T06:46:41.505Z,16.32
2022-08-31T06:47:41.440Z,16.38
2022-08-31T06:48:41.432Z,16.49
2022-08-31T06:49:41.445Z,16.39
2022-08-31T06:50:41.417Z,16.47
2022-08-31T06:51:41.411Z,16.50
2022-08-31T06:52:41.401Z,16.46
2022-08-31T06:53:41.411Z,16.53
2022-08-31T06:54:41.405Z,16.69
2022-08-31T06:55:41.373Z,16.71
2022-08-31T06:56:41.361Z,16.79
2022-08-31T06:57:41.359Z,16.84
2022-08-31T06:58:41.357Z,16.87
2022-08-31T06:59:41.365Z,16.83
2022-08-31T07:00:41.337Z,16.84
2022-08-31T07:01:41.421Z,16.79
2022-08-31T07:02:41.414Z,16.93
2022-08-31T07:03:41.334Z,17.02
2022-08-31T07:04:41.330Z,17.06
2022-08-31T07:05:41.294Z,17.04
2022-08-31T07:06:41.290Z,16.96
2022-08-31T07:07:41.288Z,16.99
2022-08-31T07:08:41.273Z,17.09
2022-08-31T07:09:41.313Z,16.91
2022-08-31T07:10:41.262Z,16.84
2022-08-31T07:11:44.630Z,17.01
2022-08-31T07:12:42.244Z,17.01
2022-08-31T07:13:41.234Z,16.94
2022-08-31T07:14:41.264Z,16.97
2022-08-31T07:15:41.227Z,16.87
2022-08-31T07:16:41.311Z,16.96
2022-08-31T07:17:41.209Z,17.02
2022-08-31T07:18:41.201Z,16.93
2022-08-31T07:19:41.409Z,16.99
2022-08-31T07:20:41.228Z,17.01
2022-08-31T07:21:41.261Z,17.06
2022-08-31T07:22:41.172Z,16.99
2022-08-31T07:23:41.157Z,17.12
2022-08-31T07:24:41.178Z,16.91
2022-08-31T07:25:41.151Z,17.06
2022-08-31T07:26:41.138Z,17.11
2022-08-31T07:27:41.130Z,17.19
2022-08-31T07:28:41.122Z,17.31
2022-08-31T07:29:41.140Z,17.12
2022-08-31T07:30:41.155Z,16.96
2022-08-31T07:31:41.095Z,16.97
2022-08-31T07:32:41.094Z,17.12
2022-08-31T07:33:41.082Z,17.27
2022-08-31T07:34:41.100Z,17.22
2022-08-31T07:35:41.066Z,17.23
2022-08-31T07:36:41.059Z,17.22
2022-08-31T07:37:41.049Z,17.11
2022-08-31T07:38:41.038Z,17.23
2022-08-31T07:39:41.058Z,17.20
2022-08-31T07:40:41.159Z,17.39
2022-08-31T07:41:41.020Z,17.38
2022-08-31T07:42:41.016Z,17.56
2022-08-31T07:43:40.999Z,17.56
2022-08-31T07:44:41.029Z,17.41
2022-08-31T07:45:41.026Z,17.48
2022-08-31T07:46:40.976Z,17.56
2022-08-31T07:47:40.964Z,17.68
2022-08-31T07:48:40.961Z,17.54
2022-08-31T07:49:40.974Z,17.52
2022-08-31T07:50:40.942Z,17.42
2022-08-31T07:51:40.934Z,17.20
2022-08-31T07:52:40.971Z,17.33
2022-08-31T07:53:40.927Z,17.22
2022-08-31T07:54:40.926Z,17.24
2022-08-31T07:55:40.930Z,17.20
2022-08-31T07:56:40.903Z,17.23
2022-08-31T07:57:40.899Z,17.22
2022-08-31T07:58:40.882Z,17.27
2022-08-31T07:59:40.874Z,17.33
2022-08-31T08:00:40.886Z,17.42
2022-08-31T08:01:40.922Z,17.44
2022-08-31T08:02:40.871Z,17.52
2022-08-31T08:03:40.851Z,17.54
2022-08-31T08:04:40.833Z,17.49
2022-08-31T08:05:40.893Z,17.56
2022-08-31T08:06:40.819Z,17.54
2022-08-31T08:07:40.823Z,17.57
2022-08-31T08:08:40.808Z,17.57
2022-08-31T08:09:40.795Z,17.56
2022-08-31T08:10:40.813Z,17.65
2022-08-31T08:11:40.771Z,17.67
2022-08-31T08:12:41.776Z,17.71
2022-08-31T08:13:40.767Z,17.76
2022-08-31T08:14:40.748Z,17.65
2022-08-31T08:15:40.785Z,17.86
2022-08-31T08:16:40.779Z,17.79
2022-08-31T08:17:40.733Z,17.95
2022-08-31T08:18:40.725Z,17.79
2022-08-31T08:19:40.779Z,17.86
2022-08-31T08:20:40.746Z,17.87
2022-08-31T08:21:40.711Z,17.89
2022-08-31T08:22:54.216Z,17.86
2022-08-31T08:23:42.695Z,17.86
2022-08-31T08:24:40.852Z,17.72
2022-08-31T08:25:40.695Z,17.59
2022-08-31T08:26:40.669Z,17.80
2022-08-31T08:27:40.657Z,17.85
2022-08-31T08:28:41.286Z,18.04
2022-08-31T08:29:40.649Z,17.82
2022-08-31T08:30:40.657Z,17.98
2022-08-31T08:31:40.737Z,17.94
2022-08-31T08:32:40.622Z,17.94
2022-08-31T08:33:40.683Z,18.01
2022-08-31T08:34:40.606Z,18.19
2022-08-31T08:35:40.618Z,18.08
2022-08-31T08:36:40.591Z,18.23
2022-08-31T08:37:57.211Z,18.26
2022-08-31T08:38:42.572Z,18.23
2022-08-31T08:39:40.563Z,18.20
2022-08-31T08:40:40.632Z,18.18
2022-08-31T08:41:40.548Z,18.28
2022-08-31T08:42:40.546Z,18.52
2022-08-31T08:43:40.555Z,18.59
2022-08-31T08:44:40.524Z,18.63
2022-08-31T08:45:40.586Z,18.62
2022-08-31T08:46:40.667Z,18.56
2022-08-31T08:47:40.522Z,18.47
2022-08-31T08:48:40.488Z,18.66
2022-08-31T08:49:40.492Z,18.71
2022-08-31T08:50:40.506Z,18.86
2022-08-31T08:51:40.484Z,18.58
2022-08-31T08:52:40.462Z,18.41
2022-08-31T08:53:40.459Z,18.52
2022-08-31T08:54:40.448Z,18.73
2022-08-31T08:55:40.481Z,18.88
2022-08-31T08:56:40.429Z,18.96
2022-08-31T08:57:40.425Z,19.08
2022-08-31T08:58:40.416Z,19.19
2022-08-31T08:59:40.408Z,19.44
2022-08-31T09:00:40.437Z,19.31
2022-08-31T09:01:40.465Z,19.07
2022-08-31T09:02:40.519Z,19.15
2022-08-31T09:03:40.409Z,18.75
2022-08-31T09:04:40.377Z,18.59
2022-08-31T09:05:40.446Z,18.65
2022-08-31T09:06:46.010Z,18.60
2022-08-31T09:07:41.339Z,18.41
2022-08-31T09:08:40.334Z,18.49
2022-08-31T09:09:40.340Z,18.80
2022-08-31T09:10:40.452Z,19.08
2022-08-31T09:11:40.308Z,18.98
2022-08-31T09:12:40.300Z,18.86
2022-08-31T09:13:40.302Z,18.73
2022-08-31T09:14:40.313Z,18.71
2022-08-31T09:15:40.496Z,18.92
2022-08-31T09:16:40.271Z,19.07
2022-08-31T09:17:40.267Z,19.29
2022-08-31T09:18:40.255Z,19.49
2022-08-31T09:19:40.258Z,19.64
2022-08-31T09:20:40.443Z,19.56
2022-08-31T09:21:40.248Z,19.49
2022-08-31T09:22:40.225Z,19.26
2022-08-31T09:23:40.214Z,19.27
2022-08-31T09:24:40.206Z,19.15
2022-08-31T09:25:40.430Z,18.99
2022-08-31T09:26:40.190Z,19.08
2022-08-31T09:27:40.193Z,19.11
2022-08-31T09:28:40.191Z,19.27
2022-08-31T09:29:40.172Z,19.08
2022-08-31T09:30:40.453Z,19.21
2022-08-31T09:31:40.268Z,19.49
2022-08-31T09:32:40.148Z,19.63
2022-08-31T09:33:40.135Z,19.30
2022-08-31T09:34:40.132Z,19.21
2022-08-31T09:35:40.151Z,19.14
2022-08-31T09:36:40.117Z,19.34
2022-08-31T09:37:40.108Z,19.36
2022-08-31T09:38:40.099Z,19.21
2022-08-31T09:39:40.090Z,19.12
2022-08-31T09:40:40.193Z,19.09
2022-08-31T09:41:40.074Z,19.21
2022-08-31T09:42:40.074Z,19.54
2022-08-31T09:43:41.196Z,19.86
2022-08-31T09:44:40.052Z,19.73
2022-08-31T09:45:42.305Z,19.76
2022-08-31T09:46:41.040Z,19.77
2022-08-31T09:47:40.035Z,19.86
2022-08-31T09:48:40.030Z,19.69
2022-08-31T09:49:40.886Z,19.89
2022-08-31T09:50:40.036Z,19.86
2022-08-31T09:51:39.993Z,19.84
2022-08-31T09:52:40.992Z,19.95
2022-08-31T09:53:39.991Z,20.24
2022-08-31T09:54:44.417Z,20.37
2022-08-31T09:55:41.997Z,20.02
2022-08-31T09:56:39.961Z,20.09
2022-08-31T09:57:39.955Z,20.18
2022-08-31T09:58:39.952Z,20.39
2022-08-31T09:59:39.937Z,20.07
2022-08-31T10:00:39.935Z,19.94
2022-08-31T10:01:39.997Z,19.96
2022-08-31T10:02:39.923Z,19.88
2022-08-31T10:03:39.902Z,19.77
2022-08-31T10:04:39.949Z,19.92
2022-08-31T10:05:39.890Z,19.89
2022-08-31T10:06:39.919Z,19.94
2022-08-31T10:07:39.881Z,19.99
2022-08-31T10:08:39.880Z,20.09
2022-08-31T10:09:39.862Z,20.40
2022-08-31T10:10:39.897Z,20.59
2022-08-31T10:11:39.855Z,20.48
2022-08-31T10:12:39.845Z,20.37
2022-08-31T10:13:39.840Z,20.28
2022-08-31T10:14:39.826Z,19.76
2022-08-31T10:15:39.894Z,19.94
2022-08-31T10:16:39.805Z,20.21
2022-08-31T10:17:39.806Z,20.39
2022-08-31T10:18:39.834Z,20.60
2022-08-31T10:19:39.805Z,20.72
2022-08-31T10:20:39.837Z,20.72
2022-08-31T10:21:39.821Z,20.59
2022-08-31T10:22:39.784Z,20.65
2022-08-31T10:23:39.759Z,20.66
2022-08-31T10:24:39.758Z,20.51
2022-08-31T10:25:39.775Z,20.60
2022-08-31T10:26:39.735Z,20.95
2022-08-31T10:27:39.732Z,21.05
2022-08-31T10:28:39.725Z,21.14
2022-08-31T10:29:39.716Z,20.97
2022-08-31T10:30:39.834Z,20.72
2022-08-31T10:31:39.697Z,20.78
2022-08-31T10:32:39.699Z,20.52
2022-08-31T10:33:39.683Z,20.75
2022-08-31T10:34:39.672Z,20.80
2022-08-31T10:35:39.705Z,20.81
2022-08-31T10:36:39.699Z,20.67
2022-08-31T10:37:39.647Z,20.55
2022-08-31T10:38:39.640Z,20.29
2022-08-31T10:39:39.631Z,20.58
2022-08-31T10:40:39.736Z,20.70
2022-08-31T10:41:39.635Z,20.81
2022-08-31T10:42:39.606Z,20.78
2022-08-31T10:43:40.602Z,20.63
2022-08-31T10:44:39.607Z,20.16
2022-08-31T10:45:39.585Z,20.14
2022-08-31T10:46:39.674Z,20.28
2022-08-31T10:47:39.566Z,20.22
2022-08-31T10:48:39.560Z,20.04
2022-08-31T10:49:39.554Z,20.09
2022-08-31T10:50:39.607Z,19.99
2022-08-31T10:51:39.548Z,20.06
2022-08-31T10:52:39.545Z,20.03
2022-08-31T10:53:40.092Z,19.95
2022-08-31T10:54:39.514Z,20.07
2022-08-31T10:55:39.625Z,19.95
2022-08-31T10:56:39.502Z,19.69
2022-08-31T10:57:39.487Z,19.85
2022-08-31T10:58:39.487Z,19.73
2022-08-31T10:59:39.481Z,19.73
2022-08-31T11:00:39.494Z,19.70
2022-08-31T11:01:39.517Z,19.82
2022-08-31T11:02:39.460Z,19.74
2022-08-31T11:03:39.444Z,19.66
2022-08-31T11:04:39.530Z,19.82
2022-08-31T11:05:39.520Z,20.04
2022-08-31T11:06:39.416Z,20.26
2022-08-31T11:07:39.421Z,20.55
2022-08-31T11:08:39.403Z,20.52
2022-08-31T11:09:39.397Z,20.06
2022-08-31T11:10:39.678Z,20.25
2022-08-31T11:11:43.480Z,20.07
2022-08-31T11:12:39.373Z,19.71
2022-08-31T11:13:39.362Z,19.88
2022-08-31T11:14:39.362Z,20.18
2022-08-31T11:15:39.407Z,20.25
2022-08-31T11:16:39.347Z,20.32
2022-08-31T11:17:39.341Z,20.52
2022-08-31T11:18:39.330Z,20.52
2022-08-31T11:19:39.320Z,20.60
2022-08-31T11:20:39.484Z,20.67
2022-08-31T11:21:39.298Z,20.56
2022-08-31T11:22:39.296Z,20.50
2022-08-31T11:23:42.177Z,20.18
2022-08-31T11:24:40.280Z,19.88
2022-08-31T11:25:39.711Z,19.92
2022-08-31T11:26:39.266Z,20.14
2022-08-31T11:27:39.262Z,19.95
2022-08-31T11:28:39.252Z,19.84
2022-08-31T11:29:39.238Z,19.95
2022-08-31T11:30:42.036Z,20.19
2022-08-31T11:31:40.292Z,20.31
2022-08-31T11:32:39.254Z,20.03
2022-08-31T11:33:47.383Z,20.10
2022-08-31T11:34:40.217Z,20.19
2022-08-31T11:35:42.183Z,19.89
2022-08-31T11:36:39.189Z,19.84
2022-08-31T11:37:39.200Z,19.76
2022-08-31T11:38:39.185Z,19.84
2022-08-31T11:39:39.172Z,19.91
2022-08-31T11:40:39.275Z,19.92
2022-08-31T11:41:39.167Z,19.91
2022-08-31T11:42:39.144Z,20.07
2022-08-31T11:43:39.130Z,20.04
2022-08-31T11:44:39.124Z,20.07
2022-08-31T11:45:39.178Z,20.07
2022-08-31T11:46:40.052Z,20.14
2022-08-31T11:47:39.115Z,20.18
2022-08-31T11:48:39.097Z,19.96
2022-08-31T11:49:39.086Z,19.99
2022-08-31T11:50:39.109Z,19.91
2022-08-31T11:51:41.390Z,19.92
2022-08-31T11:52:40.066Z,19.79
2022-08-31T11:53:39.057Z,19.82
2022-08-31T11:54:39.059Z,19.71
2022-08-31T11:55:40.075Z,19.56
2022-08-31T11:58:36.613Z,19.76
2022-08-31T11:59:36.636Z,19.86
2022-08-31T12:00:36.648Z,19.92
2022-08-31T12:01:36.612Z,19.94
2022-08-31T12:02:36.649Z,20.04
2022-08-31T12:03:36.596Z,20.02
2022-08-31T12:04:36.604Z,19.89
2022-08-31T12:05:36.709Z,20.02
2022-08-31T12:06:37.711Z,20.09
2022-08-31T12:07:37.708Z,19.84
2022-08-31T12:08:37.699Z,19.77
2022-08-31T12:09:37.741Z,19.88
2022-08-31T12:10:37.745Z,20.11
2022-08-31T12:11:37.682Z,20.14
2022-08-31T12:12:37.699Z,19.99
2022-08-31T12:13:37.659Z,19.91
2022-08-31T12:14:37.672Z,19.88
2022-08-31T12:15:37.687Z,19.96
2022-08-31T12:16:37.661Z,19.95
2022-08-31T12:17:37.632Z,19.84
2022-08-31T12:18:37.628Z,19.81
2022-08-31T12:19:37.625Z,19.92
2022-08-31T12:20:37.639Z,19.76
2022-08-31T12:21:37.599Z,19.63
2022-08-31T12:22:37.588Z,19.54
2022-08-31T12:23:37.586Z,19.71
2022-08-31T12:24:37.581Z,20.00
2022-08-31T12:25:37.599Z,19.82
2022-08-31T12:26:41.803Z,19.84
2022-08-31T12:27:38.566Z,20.03
2022-08-31T12:28:37.547Z,20.16
2022-08-31T12:29:37.542Z,20.00
2022-08-31T12:30:37.570Z,20.10
2022-08-31T12:31:37.590Z,19.99
2022-08-31T12:32:37.529Z,19.99
2022-08-31T12:33:37.514Z,20.02
2022-08-31T12:34:37.518Z,20.19
2022-08-31T12:35:37.523Z,20.26
2022-08-31T12:36:37.491Z,20.25
2022-08-31T12:37:37.475Z,19.92
2022-08-31T12:38:37.474Z,19.86
2022-08-31T12:39:37.464Z,19.63
2022-08-31T12:40:37.533Z,19.70
2022-08-31T12:41:37.445Z,19.73
2022-08-31T12:42:37.436Z,19.73
2022-08-31T12:43:37.436Z,19.81
2022-08-31T12:44:37.427Z,19.86
2022-08-31T12:45:37.459Z,19.94
2022-08-31T12:46:37.511Z,20.04
2022-08-31T12:47:37.407Z,19.96
2022-08-31T12:48:37.412Z,19.74
2022-08-31T12:49:37.423Z,19.81
2022-08-31T12:50:37.413Z,19.64
2022-08-31T12:51:37.371Z,19.70
2022-08-31T12:52:37.399Z,19.77
2022-08-31T12:53:37.370Z,19.94
2022-08-31T12:54:37.401Z,19.92